N0NB Weather Reports


Display with metric or nautical units.
time (UTC)temp
F
wind
direction
speed
MPH
gust
MPH
rain 1hr
in
rain 24hr
in
rain mn
in
humidity
%
barometer
mb
20171121225017 34 337 5.0 12.0 0.00 0.00 0.00 46 1027.7
20171121224017 35 337 5.0 14.0 0.00 0.00 0.00 44 1027.5
20171121223018 35 0 4.0 9.0 0.00 0.00 0.00 44 1027.2
20171121222017 36 337 7.0 19.0 0.00 0.00 0.00 43 1027.1
20171121221017 36 337 7.0 14.0 0.00 0.00 0.00 42 1026.9
20171121220018 37 0 5.0 11.0 0.00 0.00 0.00 42 1026.8
20171121215017 37 0 7.0 13.0 0.00 0.00 0.00 41 1026.6
20171121214017 37 0 6.0 12.0 0.00 0.00 0.00 42 1026.5
20171121213017 38 337 5.0 11.0 0.00 0.00 0.00 41 1026.3
20171121212017 38 337 9.0 16.0 0.00 0.00 0.00 39 1026.1
20171121211017 38 0 6.0 12.0 0.00 0.00 0.00 40 1025.9
20171121210018 39 0 7.0 14.0 0.00 0.00 0.00 38 1025.9
20171121205017 39 337 9.0 17.0 0.00 0.00 0.00 38 1025.5
20171121204017 39 337 8.0 15.0 0.00 0.00 0.00 38 1025.5
20171121203017 39 337 10.0 20.0 0.00 0.00 0.00 37 1025.4
20171121202017 39 337 11.0 18.0 0.00 0.00 0.00 36 1024.9
20171121201017 40 337 8.0 15.0 0.00 0.00 0.00 35 1025.0
20171121200020 41 337 10.0 22.0 0.00 0.00 0.00 33 1024.9
20171121195018 41 337 10.0 21.0 0.00 0.00 0.00 32 1024.7
20171121194017 42 337 9.0 19.0 0.00 0.00 0.00 31 1024.4
20171121193017 42 0 9.0 16.0 0.00 0.00 0.00 29 1024.2
20171121192017 43 0 9.0 17.0 0.00 0.00 0.00 27 1024.0
20171121191017 43 337 9.0 19.0 0.00 0.00 0.00 29 1023.6
20171121190017 43 337 8.0 14.0 0.00 0.00 0.00 31 1023.6
20171121185017 43 337 8.0 16.0 0.00 0.00 0.00 30 1023.5
20171121184017 42 0 7.0 16.0 0.00 0.00 0.00 30 1023.3
20171121183017 42 337 10.0 20.0 0.00 0.00 0.00 30 1023.2
20171121182017 42 337 9.0 19.0 0.00 0.00 0.00 30 1023.1
20171121181017 42 337 11.0 23.0 0.00 0.00 0.00 30 1022.8
20171121180017 42 337 11.0 18.0 0.00 0.00 0.00 32 1022.7
20171121175017 42 0 9.0 16.0 0.00 0.00 0.00 30 1022.7
20171121174017 43 337 10.0 20.0 0.00 0.00 0.00 31 1022.8
20171121173017 42 315 11.0 21.0 0.00 0.00 0.00 33 1022.7
20171121172018 42 337 11.0 21.0 0.00 0.00 0.00 33 1022.5
20171121171017 42 337 11.0 21.0 0.00 0.00 0.00 34 1022.5
20171121170017 42 315 11.0 20.0 0.00 0.00 0.00 35 1022.2
20171121165017 43 337 12.0 21.0 0.00 0.00 0.00 35 1021.9
20171121164017 44 0 9.0 22.0 0.00 0.00 0.00 53 1021.5
20171121163017 44 0 10.0 22.0 0.00 0.00 0.00 53 1021.4
20171121162017 44 337 11.0 22.0 0.00 0.00 0.00 51 1021.1
20171121161017 44 0 8.0 18.0 0.00 0.00 0.00 51 1020.7
20171121160017 42 337 8.0 17.0 0.00 0.00 0.00 55 1020.4
20171121155016 43 0 7.0 19.0 0.00 0.00 0.00 56 1020.3
20171121154017 43 0 8.0 20.0 0.00 0.00 0.00 57 1020.0
20171121153017 43 337 7.0 15.0 0.00 0.00 0.00 58 1019.6
20171121152017 43 0 6.0 13.0 0.00 0.00 0.00 58 1019.4
20171121151017 42 337 5.0 13.0 0.00 0.00 0.00 59 1019.1
20171121150016 42 0 6.0 19.0 0.00 0.00 0.00 60 1018.9
20171121145016 42 337 6.0 12.0 0.00 0.00 0.00 60 1018.8
20171121144016 42 337 5.0 10.0 0.00 0.00 0.00 61 1018.5
20171121143016 42 22 2.0 5.0 0.00 0.00 0.00 58 1018.2
20171121142016 42 0 5.0 11.0 0.00 0.00 0.00 58 1018.0
20171121141016 42 337 6.0 15.0 0.00 0.00 0.00 57 1017.4
20171121140017 43 22 5.0 18.0 0.00 0.00 0.00 56 1017.1
20171121135019 43 0 5.0 12.0 0.00 0.00 0.00 53 1016.6
20171121134016 43 22 6.0 16.0 0.00 0.00 0.00 50 1016.3
20171121133016 43 45 6.0 14.0 0.00 0.00 0.00 49 1015.9
20171121132016 44 22 8.0 19.0 0.00 0.00 0.00 47 1015.5
20171121131016 44 22 10.0 18.0 0.00 0.00 0.00 46 1014.8
20171121130016 45 22 9.0 17.0 0.00 0.00 0.00 45 1014.2
20171121125016 45 22 8.0 18.0 0.00 0.00 0.00 45 1013.8
20171121124017 45 22 7.0 13.0 0.00 0.00 0.00 47 1013.5
20171121123016 45 45 9.0 15.0 0.00 0.00 0.00 49 1012.8
20171121122016 45 22 9.0 16.0 0.00 0.00 0.00 51 1012.7
20171121121016 45 22 9.0 16.0 0.00 0.00 0.00 51 1012.5
20171121120016 45 22 8.0 17.0 0.00 0.00 0.00 53 1012.4
20171121115016 45 22 5.0 13.0 0.00 0.00 0.00 53 1012.7
20171121114016 45 337 5.0 11.0 0.00 0.00 0.00 54 1012.6
20171121113016 45 22 6.0 14.0 0.00 0.00 0.00 54 1012.3
20171121112016 44 337 5.0 11.0 0.00 0.00 0.00 55 1012.1
20171121111016 44 0 5.0 12.0 0.00 0.00 0.00 55 1011.5
20171121110017 44 337 5.0 10.0 0.00 0.00 0.00 55 1010.9
20171121105016 44 337 4.0 9.0 0.00 0.00 0.00 55 1010.2
20171121104016 44 337 4.0 6.0 0.00 0.00 0.00 55 1009.8
20171121103016 43 0 3.0 8.0 0.00 0.00 0.00 56 1009.1
20171121102016 42 337 3.0 5.0 0.00 0.00 0.00 60 1009.3
20171121101016 42 315 2.0 4.0 0.00 0.00 0.00 61 1009.1
20171121100016 41 337 4.0 9.0 0.00 0.00 0.00 63 1008.7
20171121095016 40 337 3.0 6.0 0.00 0.00 0.00 65 1008.1
20171121094016 40 315 2.0 5.0 0.00 0.00 0.00 65 1008.1
20171121093016 39 292 2.0 4.0 0.00 0.00 0.00 68 1007.7
20171121092016 37 270 1.0 2.0 0.00 0.00 0.00 71 1007.5
20171121091016 37 0.0 0.0 0.00 0.00 0.00 70 1007.2
20171121090016 37 0.0 0.0 0.00 0.00 0.00 71 1007.0
20171121085016 37 0.0 0.0 0.00 0.00 0.00 69 1007.0
20171121084016 37 0.0 0.0 0.00 0.00 0.00 69 1007.1
20171121083016 36 0.0 0.0 0.00 0.00 0.00 69 1006.9
20171121082016 37 0.0 0.0 0.00 0.00 0.00 67 1006.8
20171121081016 37 0.0 1.0 0.00 0.00 0.00 65 1007.0
20171121080016 38 0.0 1.0 0.00 0.00 0.00 64 1006.9
20171121075016 39 270 1.0 2.0 0.00 0.00 0.00 62 1006.9
20171121074018 40 270 1.0 2.0 0.00 0.00 0.00 60 1006.9
20171121073015 40 270 1.0 3.0 0.00 0.00 0.00 61 1006.7
20171121072015 40 270 1.0 2.0 0.00 0.00 0.00 59 1006.7
20171121071018 42 270 1.0 3.0 0.00 0.00 0.00 57 1006.7
20171121070018 42 0.0 0.0 0.00 0.00 0.00 56 1006.8
20171121065017 43 0.0 2.0 0.00 0.00 0.00 55 1007.0
20171121064017 43 270 2.0 3.0 0.00 0.00 0.00 55 1006.8
20171121063015 44 247 4.0 6.0 0.00 0.00 0.00 54 1006.6
20171121062017 45 247 3.0 4.0 0.00 0.00 0.00 52 1006.5
20171121061018 46 225 2.0 4.0 0.00 0.00 0.00 50 1006.4
20171121060017 47 225 3.0 5.0 0.00 0.00 0.00 49 1006.2
20171121055017 48 225 5.0 8.0 0.00 0.00 0.00 48 1006.1
20171121054016 48 247 6.0 9.0 0.00 0.00 0.00 47 1006.2
20171121053017 49 247 7.0 10.0 0.00 0.00 0.00 46 1006.1
20171121052016 49 247 6.0 10.0 0.00 0.00 0.00 46 1005.9
20171121051017 49 247 7.0 11.0 0.00 0.00 0.00 46 1006.0
20171121050016 49 247 8.0 13.0 0.00 0.00 0.00 46 1006.1
20171121045017 49 247 7.0 10.0 0.00 0.00 0.00 47 1005.9
20171121044016 49 247 6.0 9.0 0.00 0.00 0.00 47 1005.9
20171121043017 49 247 6.0 9.0 0.00 0.00 0.00 47 1005.8
20171121042016 49 247 6.0 9.0 0.00 0.00 0.00 46 1005.7
20171121041016 49 247 6.0 8.0 0.00 0.00 0.00 45 1005.6
20171121040017 50 247 6.0 10.0 0.00 0.00 0.00 45 1005.5
20171121035016 50 247 6.0 11.0 0.00 0.00 0.00 44 1005.5
20171121034016 50 225 7.0 10.0 0.00 0.00 0.00 44 1005.4
20171121033016 50 225 8.0 11.0 0.00 0.00 0.00 44 1005.2
20171121032016 51 247 7.0 11.0 0.00 0.00 0.00 42 1005.2
20171121031016 52 225 8.0 11.0 0.00 0.00 0.00 42 1005.3
20171121030016 52 247 10.0 14.0 0.00 0.00 0.00 41 1005.3
20171121025017 52 247 8.0 12.0 0.00 0.00 0.00 41 1005.2
20171121024016 53 247 9.0 13.0 0.00 0.00 0.00 40 1005.3
20171121023016 53 247 9.0 14.0 0.00 0.00 0.00 40 1005.3
20171121022017 53 247 9.0 13.0 0.00 0.00 0.00 39 1005.2
20171121021016 53 225 9.0 14.0 0.00 0.00 0.00 40 1005.2
20171121020016 52 225 8.0 12.0 0.00 0.00 0.00 40 1005.2
20171121015016 52 247 7.0 10.0 0.00 0.00 0.00 40 1005.2
20171121014017 52 247 7.0 10.0 0.00 0.00 0.00 40 1005.2
20171121013019 53 247 7.0 12.0 0.00 0.00 0.00 40 1005.3
20171121012016 53 225 9.0 15.0 0.00 0.00 0.00 40 1005.2
20171121011016 53 247 7.0 12.0 0.00 0.00 0.00 40 1005.2
20171121010021 53 225 7.0 10.0 0.00 0.00 0.00 39 1005.1
20171121005016 53 225 8.0 13.0 0.00 0.00 0.00 40 1005.1
20171121004016 53 225 7.0 9.0 0.00 0.00 0.00 39 1005.2
20171121003016 53 225 8.0 11.0 0.00 0.00 0.00 39 1005.1
20171121002016 53 225 8.0 12.0 0.00 0.00 0.00 39 1005.2
20171121001016 53 225 9.0 14.0 0.00 0.00 0.00 39 1005.0
20171121000016 53 225 8.0 11.0 0.00 0.00 0.00 39 1005.1
20171120235016 53 225 8.0 13.0 0.00 0.00 0.00 39 1005.0
20171120234016 53 225 7.0 10.0 0.00 0.00 0.00 39 1004.8
20171120233016 54 202 6.0 10.0 0.00 0.00 0.00 38 1005.0
20171120232016 54 202 6.0 7.0 0.00 0.00 0.00 38 1005.1
20171120231016 55 202 5.0 7.0 0.00 0.00 0.00 38 1005.2
20171120230016 55 225 4.0 7.0 0.00 0.00 0.00 37 1005.2